createdAt,value
2023-04-25T03:49:19.603Z,658.40
2023-04-25T03:51:46.381Z,656.67
2023-04-25T03:54:13.004Z,656.42
2023-04-25T03:56:39.692Z,656.90
2023-04-25T03:59:06.323Z,653.63
2023-04-25T04:01:33.073Z,674.80
2023-04-25T04:03:59.846Z,655.53
2023-04-25T04:06:26.685Z,661.92
2023-04-25T04:08:53.384Z,659.42
2023-04-25T04:11:19.979Z,651.85
2023-04-25T04:13:46.649Z,659.40
2023-04-25T04:16:13.442Z,657.42
2023-04-25T04:18:40.261Z,660.53
2023-04-25T04:21:06.919Z,655.58
2023-04-25T04:23:33.561Z,657.47
2023-04-25T04:26:00.736Z,654.67
2023-04-25T04:28:27.739Z,675.42
2023-04-25T04:30:54.412Z,664.00
2023-04-25T04:33:21.037Z,659.17
2023-04-25T04:35:47.938Z,662.85
2023-04-25T04:38:16.431Z,667.77
2023-04-25T04:40:47.159Z,661.00
2023-04-25T04:43:14.225Z,676.30
2023-04-25T04:45:41.324Z,661.80
2023-04-25T04:48:08.128Z,680.45
2023-04-25T04:50:35.022Z,676.33
2023-04-25T04:53:01.756Z,667.60
2023-04-25T04:55:28.412Z,681.58
2023-04-25T04:57:55.043Z,662.20
2023-04-25T05:00:21.779Z,651.70
2023-04-25T05:02:48.829Z,664.65
2023-04-25T05:05:15.813Z,677.97
2023-04-25T05:07:42.469Z,662.15
2023-04-25T05:10:09.537Z,678.47
2023-04-25T05:12:37.128Z,675.58
2023-04-25T05:15:04.066Z,679.92
2023-04-25T05:17:30.916Z,678.60
2023-04-25T05:19:58.046Z,685.63
2023-04-25T05:22:24.700Z,681.28
2023-04-25T05:24:54.514Z,687.70
2023-04-25T05:27:22.484Z,675.58
2023-04-25T05:29:49.274Z,685.07
2023-04-25T05:32:16.167Z,697.17
2023-04-25T05:34:43.076Z,693.53
2023-04-25T05:37:09.762Z,689.65
2023-04-25T05:39:36.683Z,693.75
2023-04-25T05:42:04.794Z,698.90
2023-04-25T05:44:32.257Z,700.00
2023-04-25T05:46:58.976Z,702.42
2023-04-25T05:49:25.847Z,712.80
2023-04-25T05:51:52.598Z,717.08
2023-04-25T05:54:19.303Z,715.95
2023-04-25T05:56:46.004Z,735.47
2023-04-25T05:59:12.615Z,734.97
2023-04-25T06:01:39.283Z,735.83
2023-04-25T06:04:06.119Z,738.88
2023-04-25T06:06:33.062Z,740.45
2023-04-25T06:08:59.724Z,741.85
2023-04-25T06:11:26.334Z,745.50
2023-04-25T06:13:53.193Z,756.67
2023-04-25T06:16:20.122Z,749.60
2023-04-25T06:18:46.734Z,743.85
2023-04-25T06:21:13.659Z,755.03
2023-04-25T06:23:40.279Z,753.05
2023-04-25T06:26:06.889Z,760.30
2023-04-25T06:28:33.548Z,755.35
2023-04-25T06:31:00.485Z,766.28
2023-04-25T06:33:27.654Z,760.30
2023-04-25T06:35:54.298Z,763.03
2023-04-25T06:38:21.118Z,753.07
2023-04-25T06:40:48.130Z,767.78
2023-04-25T06:43:14.768Z,757.00
2023-04-25T06:45:41.381Z,751.00
2023-04-25T06:48:08.194Z,760.10
2023-04-25T06:50:35.516Z,757.47
2023-04-25T06:53:02.545Z,756.83
2023-04-25T06:55:29.209Z,759.08
2023-04-25T06:57:55.870Z,753.73
2023-04-25T07:00:22.501Z,759.38
2023-04-25T07:02:49.337Z,752.22
2023-04-25T07:05:18.130Z,749.40
2023-04-25T07:07:45.877Z,741.97
2023-04-25T07:10:12.742Z,736.67
2023-04-25T07:12:39.378Z,721.13
2023-04-25T07:15:07.080Z,725.50
2023-04-25T07:17:34.795Z,714.00
2023-04-25T07:20:01.473Z,697.30
2023-04-25T07:22:28.242Z,687.67
2023-04-25T07:24:55.056Z,687.28
2023-04-25T07:27:21.657Z,691.60
2023-04-25T07:29:48.502Z,661.50
2023-04-25T07:32:15.307Z,681.58
2023-04-25T07:34:42.448Z,678.17
2023-04-25T07:37:09.141Z,658.85
2023-04-25T07:39:36.111Z,663.08
2023-04-25T07:42:03.280Z,659.45
2023-04-25T07:44:31.383Z,681.50
2023-04-25T07:46:58.569Z,682.10
2023-04-25T07:49:25.430Z,695.45
2023-04-25T07:51:52.060Z,690.17
2023-04-25T07:54:18.702Z,699.47
2023-04-25T07:56:52.138Z,692.92
2023-04-25T07:59:20.361Z,698.75
2023-04-25T08:01:47.118Z,707.78
2023-04-25T08:04:13.954Z,701.42
2023-04-25T08:06:41.627Z,714.73
2023-04-25T08:09:10.192Z,720.40
2023-04-25T08:11:37.172Z,716.60
2023-04-25T08:14:03.816Z,717.17
2023-04-25T08:16:31.300Z,718.15
2023-04-25T08:18:58.024Z,717.03
2023-04-25T08:21:24.844Z,719.53
2023-04-25T08:23:51.462Z,716.15
2023-04-25T08:26:18.118Z,719.10
2023-04-25T08:28:44.817Z,725.87
2023-04-25T08:31:11.616Z,708.75
2023-04-25T08:33:38.515Z,699.05
2023-04-25T08:36:05.424Z,695.88
2023-04-25T08:38:32.441Z,707.15
2023-04-25T08:41:01.889Z,702.03
2023-04-25T08:43:31.639Z,690.63
2023-04-25T08:46:02.071Z,690.42
2023-04-25T08:48:32.000Z,695.15
2023-04-25T08:50:59.343Z,691.92
2023-04-25T08:53:31.531Z,700.70
2023-04-25T08:55:59.865Z,719.50
2023-04-25T08:58:27.875Z,727.05
2023-04-25T09:00:54.761Z,730.13
2023-04-25T09:03:21.860Z,748.72
2023-04-25T09:05:48.619Z,744.83
2023-04-25T09:08:15.292Z,740.28
2023-04-25T09:10:42.254Z,743.92
2023-04-25T09:13:12.387Z,758.10
2023-04-25T09:16:08.594Z,761.20
2023-04-25T09:18:37.258Z,763.17
2023-04-25T09:21:14.121Z,773.77
2023-04-25T09:23:49.205Z,790.77
2023-04-25T09:26:21.199Z,806.97
2023-04-25T09:28:48.951Z,818.35
2023-04-25T09:31:25.595Z,818.50
2023-04-25T09:34:01.858Z,825.47
2023-04-25T09:36:31.683Z,826.33
2023-04-25T09:39:00.737Z,825.00
2023-04-25T09:41:27.362Z,824.00
2023-04-25T09:43:58.388Z,824.25
2023-04-25T09:46:25.845Z,822.88
2023-04-25T09:48:54.580Z,821.25
2023-04-25T09:51:21.444Z,812.22
2023-04-25T09:53:51.844Z,817.42
2023-04-25T09:56:20.797Z,819.60
2023-04-25T09:58:50.345Z,817.72
2023-04-25T10:01:17.970Z,820.63
2023-04-25T10:03:48.076Z,819.80
2023-04-25T10:06:20.075Z,814.33
2023-04-25T10:08:51.912Z,818.40
2023-04-25T10:11:18.985Z,813.38
2023-04-25T10:13:46.544Z,816.50
2023-04-25T10:16:13.940Z,825.75
2023-04-25T10:18:40.789Z,833.58
2023-04-25T10:21:08.118Z,839.03
2023-04-25T10:23:35.810Z,850.35
2023-04-25T10:26:02.841Z,865.53
2023-04-25T10:28:29.547Z,857.97
2023-04-25T10:31:01.323Z,853.95
2023-04-25T10:33:41.872Z,891.28
2023-04-25T10:36:18.599Z,900.25
2023-04-25T10:38:46.503Z,910.80
2023-04-25T10:41:14.460Z,913.67
2023-04-25T10:43:43.505Z,904.70
2023-04-25T10:46:27.227Z,901.28
2023-04-25T10:49:02.470Z,893.55
2023-04-25T10:51:54.221Z,874.70
2023-04-25T10:54:23.944Z,861.85
2023-04-25T10:56:52.195Z,865.77
2023-04-25T10:59:20.156Z,870.40
2023-04-25T11:01:50.303Z,880.20
2023-04-25T11:04:22.844Z,877.95
2023-04-25T11:07:24.669Z,874.30
2023-04-25T11:09:51.326Z,886.70
2023-04-25T11:12:18.539Z,893.03
2023-04-25T11:14:45.362Z,895.35
2023-04-25T11:17:12.339Z,913.97
2023-04-25T11:19:39.129Z,929.90
2023-04-25T11:22:07.010Z,967.72
2023-04-25T11:24:35.893Z,972.65
2023-04-25T11:27:04.647Z,972.88
2023-04-25T11:29:32.662Z,949.25
2023-04-25T11:31:59.655Z,924.05
2023-04-25T11:34:27.063Z,922.33
2023-04-25T11:36:54.616Z,934.58
2023-04-25T11:39:21.728Z,940.58
2023-04-25T11:41:48.583Z,946.67
2023-04-25T11:44:19.474Z,948.05
2023-04-25T11:46:46.760Z,940.28
2023-04-25T11:49:14.274Z,929.47
2023-04-25T11:51:50.537Z,927.83
2023-04-25T11:54:17.404Z,939.85
2023-04-25T11:56:45.358Z,958.25
2023-04-25T11:59:13.010Z,966.35
2023-04-25T12:01:41.999Z,957.65
2023-04-25T12:04:15.843Z,955.65
2023-04-25T12:06:44.534Z,965.15
2023-04-25T12:09:14.140Z,963.80
2023-04-25T12:11:45.220Z,967.13
2023-04-25T12:14:12.950Z,973.10
2023-04-25T12:16:44.523Z,978.28
2023-04-25T12:19:15.111Z,982.33
2023-04-25T12:21:54.524Z,982.38
2023-04-25T12:24:26.613Z,975.35
2023-04-25T12:27:05.018Z,975.85
2023-04-25T12:29:48.835Z,977.23
2023-04-25T12:32:16.857Z,981.00
2023-04-25T12:34:43.584Z,974.20
2023-04-25T12:37:10.662Z,978.92
2023-04-25T12:39:37.659Z,984.45
2023-04-25T12:42:06.223Z,991.25
2023-04-25T12:44:34.997Z,999.90
2023-04-25T12:47:01.873Z,999.90
2023-04-25T12:49:28.544Z,999.90
2023-04-25T12:51:55.511Z,999.90
2023-04-25T12:54:22.139Z,999.90
2023-04-25T12:56:51.519Z,999.90
2023-04-25T12:59:18.826Z,999.90
2023-04-25T13:01:46.393Z,999.90
2023-04-25T13:04:13.390Z,999.90
2023-04-25T13:06:40.166Z,999.90
2023-04-25T13:09:07.723Z,999.90
2023-04-25T13:11:34.331Z,999.90
2023-04-25T13:14:01.964Z,999.90
2023-04-25T13:16:28.724Z,999.90
2023-04-25T13:18:57.021Z,999.90
2023-04-25T13:21:24.236Z,995.33
2023-04-25T13:23:51.493Z,994.50
2023-04-25T13:26:18.536Z,997.17
2023-04-25T13:28:45.244Z,995.10
2023-04-25T13:31:12.145Z,999.03
2023-04-25T13:33:38.862Z,996.60
2023-04-25T13:36:06.260Z,999.10
2023-04-25T13:38:32.873Z,996.60
2023-04-25T13:40:59.632Z,990.05
2023-04-25T13:43:26.295Z,984.63
2023-04-25T13:45:52.967Z,976.80
2023-04-25T13:48:20.854Z,974.72
2023-04-25T13:50:47.551Z,974.55
2023-04-25T13:53:14.257Z,959.60
2023-04-25T13:55:41.118Z,946.00
2023-04-25T13:58:11.011Z,928.35
2023-04-25T14:00:44.341Z,929.72
2023-04-25T14:03:11.281Z,934.33
2023-04-25T14:05:39.449Z,933.45
2023-04-25T14:08:10.821Z,932.42
2023-04-25T14:10:38.223Z,928.95
2023-04-25T14:13:06.995Z,924.50
2023-04-25T14:15:35.190Z,928.15
2023-04-25T14:18:02.259Z,922.53
2023-04-25T14:20:29.451Z,927.92
2023-04-25T14:22:57.950Z,923.80
2023-04-25T14:25:25.476Z,934.67
2023-04-25T14:27:52.123Z,930.72
2023-04-25T14:30:19.984Z,933.33
2023-04-25T14:32:46.979Z,947.63
2023-04-25T14:35:14.030Z,947.22
2023-04-25T14:37:40.855Z,959.70
2023-04-25T14:40:11.392Z,962.40
2023-04-25T14:42:38.320Z,970.07
2023-04-25T14:45:07.828Z,972.27
2023-04-25T14:47:38.300Z,970.60
2023-04-25T14:50:06.338Z,970.20
2023-04-25T14:52:33.045Z,976.83
2023-04-25T14:55:02.694Z,978.03
2023-04-25T14:57:29.321Z,975.60
2023-04-25T14:59:55.915Z,979.05
2023-04-25T15:02:22.640Z,983.08
2023-04-25T15:04:49.507Z,979.55
2023-04-25T15:07:18.237Z,982.65
2023-04-25T15:09:45.361Z,983.63
2023-04-25T15:12:12.875Z,981.80
2023-04-25T15:14:39.533Z,984.60
2023-04-25T15:17:06.343Z,977.20
2023-04-25T15:19:33.115Z,976.87
2023-04-25T15:22:02.268Z,969.53
2023-04-25T15:24:29.842Z,968.22
2023-04-25T15:26:56.439Z,964.38
2023-04-25T15:29:23.099Z,952.00
2023-04-25T15:31:49.879Z,951.90
2023-04-25T15:34:16.615Z,943.47
2023-04-25T15:36:43.244Z,931.47
2023-04-25T15:39:10.017Z,929.50
2023-04-25T15:41:37.511Z,927.70
2023-04-25T15:44:04.202Z,921.83
2023-04-25T15:46:31.398Z,922.78
2023-04-25T15:48:58.188Z,920.45
2023-04-25T15:51:24.900Z,916.47
2023-04-25T15:53:51.789Z,911.42
2023-04-25T15:56:18.887Z,903.67
2023-04-25T15:58:45.668Z,897.22
2023-04-25T16:01:12.412Z,896.33
2023-04-25T16:03:39.454Z,892.20
2023-04-25T16:06:06.352Z,896.70
2023-04-25T16:08:35.665Z,886.60
2023-04-25T16:11:03.136Z,881.17
2023-04-25T16:13:30.171Z,892.45
2023-04-25T16:15:57.608Z,884.53
2023-04-25T16:18:24.382Z,890.83
2023-04-25T16:20:51.138Z,897.88
2023-04-25T16:23:18.494Z,897.67
2023-04-25T16:25:45.864Z,900.53
2023-04-25T16:28:12.629Z,901.90
2023-04-25T16:30:39.418Z,896.65
2023-04-25T16:33:06.102Z,892.30
2023-04-25T16:35:32.826Z,884.20
2023-04-25T16:37:59.689Z,890.57
2023-04-25T16:40:27.136Z,873.03
2023-04-25T16:42:53.793Z,876.80
2023-04-25T16:45:21.473Z,873.53
2023-04-25T16:47:48.305Z,854.10
2023-04-25T16:50:15.542Z,847.35
2023-04-25T16:52:44.439Z,848.00
2023-04-25T16:55:11.351Z,850.28
2023-04-25T16:57:38.178Z,849.08
2023-04-25T17:00:06.448Z,840.95
2023-04-25T17:02:33.363Z,845.60
2023-04-25T17:05:00.134Z,839.72
2023-04-25T17:07:27.834Z,842.28
2023-04-25T17:09:54.433Z,836.65
2023-04-25T17:12:21.662Z,830.40
2023-04-25T17:14:49.793Z,833.83
2023-04-25T17:17:18.680Z,813.40
2023-04-25T17:19:45.845Z,808.70
2023-04-25T17:22:12.610Z,795.45
2023-04-25T17:24:40.686Z,796.28
2023-04-25T17:27:07.550Z,797.35
2023-04-25T17:29:35.133Z,793.38
2023-04-25T17:32:02.066Z,798.47
2023-04-25T17:34:29.087Z,798.47
2023-04-25T17:36:55.758Z,798.03
2023-04-25T17:39:22.429Z,797.80
2023-04-25T17:41:49.312Z,793.75
2023-04-25T17:44:15.916Z,799.88
2023-04-25T17:46:42.569Z,796.25
2023-04-25T17:49:09.252Z,789.50
2023-04-25T17:51:36.082Z,798.38
2023-04-25T17:54:02.990Z,781.60
2023-04-25T17:56:30.604Z,783.85
2023-04-25T17:58:57.438Z,778.53
2023-04-25T18:01:24.222Z,788.55
2023-04-25T18:03:51.701Z,769.05
2023-04-25T18:06:19.122Z,769.92
2023-04-25T18:08:46.611Z,763.15
2023-04-25T18:11:13.316Z,771.10
2023-04-25T18:13:40.670Z,761.47
2023-04-25T18:16:07.834Z,757.85
2023-04-25T18:18:36.082Z,752.97
2023-04-25T18:21:05.115Z,760.65
2023-04-25T18:23:33.807Z,747.93
2023-04-25T18:26:00.944Z,750.20
2023-04-25T18:28:27.668Z,754.92
2023-04-25T18:30:54.395Z,747.20
2023-04-25T18:33:22.719Z,752.17
2023-04-25T18:35:58.624Z,740.42
2023-04-25T18:41:04.441Z,746.38
2023-04-25T18:43:37.091Z,740.10
2023-04-25T18:46:03.795Z,743.00
2023-04-25T18:48:30.696Z,745.40
2023-04-25T18:50:57.637Z,747.90
2023-04-25T18:53:24.313Z,749.05
2023-04-25T18:55:51.136Z,746.60
2023-04-25T18:58:17.755Z,750.35
2023-04-25T19:00:44.526Z,742.70
2023-04-25T19:03:11.538Z,736.70
2023-04-25T19:05:38.280Z,741.92
2023-04-25T19:08:05.068Z,738.35
2023-04-25T19:10:31.702Z,739.13
2023-04-25T19:12:58.345Z,748.17
2023-04-25T19:15:25.056Z,739.08
2023-04-25T19:17:52.243Z,741.28
2023-04-25T19:20:21.065Z,740.85
2023-04-25T19:22:48.378Z,745.72
2023-04-25T19:25:15.985Z,747.72
2023-04-25T19:27:42.605Z,744.10
2023-04-25T19:30:10.692Z,745.20
2023-04-25T19:32:38.549Z,746.05
2023-04-25T19:35:08.559Z,753.88
2023-04-25T19:37:36.398Z,747.17
2023-04-25T19:40:04.815Z,743.78
2023-04-25T19:42:31.432Z,763.30
2023-04-25T19:44:58.013Z,753.65
2023-04-25T19:47:24.821Z,755.95
2023-04-25T19:49:52.164Z,750.58
2023-04-25T19:52:18.867Z,756.03
2023-04-25T19:54:45.614Z,751.43
2023-04-25T19:57:13.690Z,752.47
2023-04-25T19:59:40.829Z,759.65
2023-04-25T20:02:10.477Z,751.97
2023-04-25T20:04:38.539Z,747.58
2023-04-25T20:07:05.269Z,748.65
2023-04-25T20:09:31.900Z,749.90
2023-04-25T20:11:58.522Z,759.40
2023-04-25T20:14:26.074Z,754.47
2023-04-25T20:16:53.102Z,763.60
2023-04-25T20:19:20.043Z,756.53
2023-04-25T20:21:47.335Z,764.58
2023-04-25T20:24:13.951Z,760.80
2023-04-25T20:26:40.758Z,763.20
2023-04-25T20:29:07.776Z,761.38
2023-04-25T20:31:36.680Z,764.47
2023-04-25T20:34:03.659Z,766.17
2023-04-25T20:36:31.859Z,755.90
2023-04-25T20:38:58.547Z,754.37
2023-04-25T20:41:25.367Z,749.67
2023-04-25T20:43:53.291Z,748.97
2023-04-25T20:46:20.488Z,743.03
2023-04-25T20:48:47.274Z,747.60
2023-04-25T20:51:14.292Z,745.00
2023-04-25T20:53:40.932Z,743.58
2023-04-25T20:56:07.686Z,745.70
2023-04-25T20:58:34.469Z,749.13
2023-04-25T21:01:03.221Z,746.08
2023-04-25T21:03:30.413Z,741.75
2023-04-25T21:05:57.396Z,748.80
2023-04-25T21:08:24.120Z,755.78
2023-04-25T21:10:52.746Z,752.10
2023-04-25T21:13:19.525Z,742.60
2023-04-25T21:15:46.142Z,751.05
2023-04-25T21:18:12.855Z,762.90
2023-04-25T21:20:39.626Z,757.33
2023-04-25T21:23:06.258Z,749.38
2023-04-25T21:25:33.049Z,754.65
2023-04-25T21:28:00.389Z,748.05
2023-04-25T21:30:27.395Z,747.42
2023-04-25T21:32:54.335Z,743.43
2023-04-25T21:35:22.127Z,748.88
2023-04-25T21:37:49.652Z,755.23
2023-04-25T21:40:16.514Z,750.38
2023-04-25T21:42:44.580Z,747.30
2023-04-25T21:45:12.116Z,752.07
2023-04-25T21:47:39.093Z,748.38
2023-04-25T21:50:06.257Z,751.38
2023-04-25T21:52:33.177Z,758.23
2023-04-25T21:54:59.857Z,753.28
2023-04-25T21:57:26.518Z,747.75
2023-04-25T21:59:59.072Z,756.90
2023-04-25T22:02:27.200Z,758.10
2023-04-25T22:04:53.994Z,758.45
2023-04-25T22:07:20.679Z,770.17
2023-04-25T22:09:54.866Z,760.07
2023-04-25T22:12:23.401Z,759.53
2023-04-25T22:14:50.506Z,754.17
2023-04-25T22:17:19.264Z,757.75
2023-04-25T22:19:46.981Z,759.95
2023-04-25T22:22:13.946Z,758.75
2023-04-25T22:24:40.939Z,747.30
2023-04-25T22:27:07.611Z,745.40
2023-04-25T22:29:35.063Z,749.90
2023-04-25T22:32:02.000Z,739.67
2023-04-25T22:34:28.752Z,748.75
2023-04-25T22:36:55.626Z,743.00
2023-04-25T22:39:23.452Z,751.20
2023-04-25T22:41:50.138Z,749.00
2023-04-25T22:44:16.840Z,750.55
2023-04-25T22:46:43.756Z,756.17
2023-04-25T22:49:10.382Z,752.95
2023-04-25T22:51:37.053Z,747.20
2023-04-25T22:54:05.341Z,751.05
2023-04-25T22:56:32.705Z,750.17
2023-04-25T22:58:59.405Z,753.85
